Time;durP1;ratioP1;P1;durP2;ratioP2;P2;SDS_P1;SDS_P2;PMS_P1;PMS_P2;Temp;Humidity;BMP_temperature;BMP_pressure;BME280_temperature;BME280_humidity;BME280_pressure;Samples;Min_cycle;Max_cycle;Signal;HPM_P1;HPM_P2
2024/01/12 00:08:07;;;;;;;41.00;19.20;;;;;;;-2.13;95.31;99367.70;435305;1254;112190;-41
2024/01/12 00:18:13;;;;;;;33.60;18.20;;;;;;;-2.08;95.03;99380.96;435322;1254;105905;-39
2024/01/12 00:28:20;;;;;;;30.00;16.40;;;;;;;-2.05;95.37;99383.45;435370;1250;99225;-39
2024/01/12 00:38:27;;;;;;;39.30;20.70;;;;;;;-2.04;95.25;99379.20;435263;1254;108898;-39
2024/01/12 00:48:34;;;;;;;44.90;19.80;;;;;;;-2.10;95.26;99385.96;434881;1254;504235;-40
2024/01/12 00:58:40;;;;;;;33.60;18.80;;;;;;;-2.13;94.99;99380.83;435296;1254;110938;-39
2024/01/12 01:08:48;;;;;;;35.10;18.10;;;;;;;-2.08;95.02;99372.45;435300;1264;108486;-40
2024/01/12 01:18:55;;;;;;;34.80;19.20;;;;;;;-2.01;94.75;99375.80;435269;1254;99251;-38
2024/01/12 01:29:02;;;;;;;53.50;23.80;;;;;;;-2.00;95.05;99382.09;435511;1254;108507;-38
2024/01/12 01:39:09;;;;;;;48.50;23.10;;;;;;;-2.03;95.31;99382.20;435358;1254;99107;-39
2024/01/12 01:49:17;;;;;;;38.20;18.60;;;;;;;-2.00;95.27;99378.36;435267;1254;110770;-39
2024/01/12 01:59:24;;;;;;;34.20;18.90;;;;;;;-1.95;95.42;99369.23;435238;1250;108255;-42
2024/01/12 02:19:38;;;;;;;47.40;21.20;;;;;;;-1.90;95.06;99371.10;435372;1250;107680;-39
2024/01/12 02:29:48;;;;;;;44.70;21.00;;;;;;;-1.93;95.33;99373.92;435428;1250;99851;-38
2024/01/12 02:39:55;;;;;;;47.00;20.90;;;;;;;-1.98;95.16;99385.92;435405;1254;111848;-38
2024/01/12 02:50:02;;;;;;;42.70;21.70;;;;;;;-1.93;95.28;99383.08;436190;1251;108943;-40
2024/01/12 03:00:12;;;;;;;37.30;17.60;;;;;;;-1.81;95.28;99380.71;435280;1254;99250;-40
2024/01/12 03:10:19;;;;;;;32.90;15.80;;;;;;;-1.74;95.41;99388.69;435333;1250;110951;-40
2024/01/12 03:20:26;;;;;;;37.10;17.00;;;;;;;-1.71;95.53;99405.31;435415;1250;108013;-39
2024/01/12 03:30:33;;;;;;;27.50;11.50;;;;;;;-1.84;95.62;99412.55;435455;1254;98000;-39
2024/01/12 03:40:41;;;;;;;16.40;8.50;;;;;;;-1.92;95.53;99421.88;435259;1250;108924;-40
2024/01/12 03:50:48;;;;;;;19.80;7.60;;;;;;;-2.00;95.20;99430.54;435384;1251;99187;-38
2024/01/12 04:00:55;;;;;;;14.60;7.80;;;;;;;-2.18;95.05;99428.55;435308;1254;112639;-39
2024/01/12 04:11:02;;;;;;;22.20;8.00;;;;;;;-2.47;94.66;99420.27;435337;1254;109450;-38
2024/01/12 04:21:10;;;;;;;17.20;7.70;;;;;;;-2.77;94.25;99422.94;435314;1250;98011;-38
2024/01/12 04:31:17;;;;;;;10.30;4.40;;;;;;;-2.90;94.21;99429.20;435297;1254;111477;-39
2024/01/12 04:41:24;;;;;;;20.20;7.20;;;;;;;-2.99;94.02;99440.98;435396;1250;108023;-40
2024/01/12 04:51:31;;;;;;;21.00;8.60;;;;;;;-3.18;94.05;99440.61;435324;1252;98014;-38
2024/01/12 05:01:37;;;;;;;14.10;7.30;;;;;;;-3.37;94.04;99446.45;435014;1254;111268;-39
2024/01/12 05:11:44;;;;;;;21.90;10.30;;;;;;;-3.51;93.75;99453.04;435256;1250;108402;-39
2024/01/12 05:21:50;;;;;;;46.20;17.50;;;;;;;-3.60;93.83;99466.15;435317;1252;98825;-39
2024/01/12 05:31:57;;;;;;;34.00;14.40;;;;;;;-3.76;93.20;99480.17;435259;1255;107577;-38
2024/01/12 05:42:04;;;;;;;33.40;16.10;;;;;;;-3.85;92.98;99495.67;435249;1254;99852;-39
2024/01/12 05:52:12;;;;;;;28.70;13.90;;;;;;;-3.82;93.31;99505.93;435321;1251;111395;-39
2024/01/12 06:02:19;;;;;;;77.10;23.70;;;;;;;-3.81;93.19;99511.58;435247;1250;109145;-38
2024/01/12 06:12:25;;;;;;;70.60;22.60;;;;;;;-3.89;93.36;99514.07;435420;1254;99240;-39
2024/01/12 06:22:32;;;;;;;140.50;38.80;;;;;;;-4.00;93.31;99516.83;435254;1250;111852;-40
2024/01/12 06:32:39;;;;;;;51.40;18.20;;;;;;;-4.03;93.28;99519.27;435292;1251;108427;-39
2024/01/12 06:42:46;;;;;;;34.10;14.40;;;;;;;-3.99;93.01;99516.59;435262;1250;98907;-39
2024/01/12 06:52:53;;;;;;;45.40;17.90;;;;;;;-4.02;93.07;99513.83;435344;1250;108641;-39
2024/01/12 07:03:01;;;;;;;79.20;29.10;;;;;;;-4.13;92.99;99528.10;435443;1251;98850;-38
2024/01/12 07:13:09;;;;;;;60.00;25.50;;;;;;;-4.18;92.94;99529.91;435358;1254;112217;-40
2024/01/12 07:23:16;;;;;;;147.70;53.50;;;;;;;-4.37;92.87;99523.17;435337;1250;108386;-40
2024/01/12 07:33:23;;;;;;;46.70;23.60;;;;;;;-4.41;92.70;99520.20;435108;1250;99381;-39
2024/01/12 07:53:36;;;;;;;52.00;23.70;;;;;;;-3.49;93.26;99512.37;435123;1250;107297;-40
2024/01/12 08:03:41;;;;;;;65.50;28.60;;;;;;;-3.21;93.11;99513.76;435274;1254;99247;-39
2024/01/12 08:13:47;;;;;;;63.00;29.10;;;;;;;-3.17;92.98;99510.70;435281;1252;98814;-39
2024/01/12 08:34:00;;;;;;;43.50;20.60;;;;;;;-3.12;93.04;99513.21;435381;1265;99221;-39
2024/01/12 08:44:07;;;;;;;42.70;23.00;;;;;;;-2.87;92.85;99519.19;435233;1254;108298;-40
2024/01/12 08:54:14;;;;;;;33.30;18.30;;;;;;;-2.64;92.97;99524.27;435508;1254;99253;-40
2024/01/12 09:04:20;;;;;;;52.60;24.60;;;;;;;-2.60;92.89;99538.37;435305;1254;112281;-39
2024/01/12 09:14:27;;;;;;;41.80;20.30;;;;;;;-2.75;92.97;99544.99;435344;1254;98917;-41
2024/01/12 09:34:41;;;;;;;36.20;17.50;;;;;;;-1.87;93.05;99534.96;435303;1250;111327;-40
2024/01/12 09:55:12;;;;;;;37.90;16.30;;;;;;;-0.98;92.29;99526.41;435506;1254;99244;-37
2024/01/12 10:05:18;;;;;;;23.90;12.60;;;;;;;-1.06;91.46;99527.87;435346;1250;113390;-38
2024/01/12 10:15:26;;;;;;;31.70;15.10;;;;;;;-0.93;91.09;99529.12;435477;1250;107677;-38
2024/01/12 10:25:33;;;;;;;30.40;14.70;;;;;;;-1.25;90.01;99516.52;435377;1250;117147;-38
2024/01/12 10:35:42;;;;;;;23.90;10.50;;;;;;;-1.39;88.78;99503.74;435372;1250;108692;-39
2024/01/12 10:45:51;;;;;;;35.90;15.10;;;;;;;-1.18;88.97;99493.42;435357;1250;98711;-40
2024/01/12 11:06:04;;;;;;;41.40;18.20;;;;;;;-0.98;87.89;99485.66;435326;1256;107744;-39
2024/01/12 11:16:12;;;;;;;30.80;14.80;;;;;;;-0.70;87.66;99471.38;435489;1250;99182;-38
2024/01/12 11:36:26;;;;;;;35.60;18.60;;;;;;;-0.69;87.07;99444.43;435364;1256;107450;-40
2024/01/12 11:46:35;;;;;;;36.20;16.20;;;;;;;-0.52;87.08;99413.30;435425;1254;98323;-38
2024/01/12 12:16:54;;;;;;;32.90;15.20;;;;;;;-0.61;86.65;99411.17;435478;1251;99228;-40
2024/01/12 12:27:02;;;;;;;26.40;13.80;;;;;;;-0.69;85.74;99394.05;435439;1256;111118;-39
2024/01/12 12:47:13;;;;;;;22.90;9.60;;;;;;;-0.70;85.63;99358.46;435367;1251;99088;-40
2024/01/12 13:17:35;;;;;;;32.40;13.70;;;;;;;-1.41;85.79;99323.86;435489;1251;97934;-40
2024/01/12 13:27:42;;;;;;;18.40;10.20;;;;;;;-1.45;85.88;99331.48;435396;1256;111260;-40
2024/01/12 13:37:49;;;;;;;14.80;8.60;;;;;;;-1.47;85.72;99347.27;435248;1250;107268;-40
2024/01/12 13:47:59;;;;;;;33.30;12.70;;;;;;;-1.53;85.90;99342.61;435454;1256;98499;-40
2024/01/12 13:58:04;;;;;;;31.50;13.60;;;;;;;-1.62;86.15;99352.38;435888;1250;112365;-39
2024/01/12 14:08:13;;;;;;;46.20;18.30;;;;;;;-1.63;86.23;99335.34;435413;1256;99268;-40
2024/01/12 14:18:20;;;;;;;75.20;31.20;;;;;;;-1.65;86.05;99310.27;435378;1260;97981;-40
2024/01/12 14:28:27;;;;;;;148.20;47.00;;;;;;;-1.65;86.04;99290.91;435153;1254;110701;-40
2024/01/12 14:38:39;;;;;;;100.50;34.20;;;;;;;-1.80;86.13;99259.06;435474;1256;107498;-40
2024/01/12 15:09:01;;;;;;;77.70;29.40;;;;;;;-2.41;86.61;99271.83;435355;1250;108035;-38
2024/01/12 15:19:08;;;;;;;42.70;17.90;;;;;;;-2.33;86.33;99268.92;435205;1255;99257;-39
2024/01/12 15:39:21;;;;;;;59.20;22.40;;;;;;;-2.20;87.04;99259.14;435392;1254;108575;-39
2024/01/12 15:49:28;;;;;;;42.60;17.40;;;;;;;-2.24;87.10;99245.36;435236;1251;98005;-39
2024/01/12 15:59:34;;;;;;;31.80;13.90;;;;;;;-2.30;87.19;99247.45;435360;1257;110899;-39
2024/01/12 16:09:42;;;;;;;25.50;10.10;;;;;;;-2.28;87.30;99250.05;435239;1264;107148;-39
2024/01/12 16:19:49;;;;;;;38.60;16.30;;;;;;;-2.20;87.45;99232.70;435330;1256;99244;-40
2024/01/12 16:29:57;;;;;;;44.60;22.00;;;;;;;-2.15;87.72;99212.55;435284;1256;111744;-39
2024/01/12 16:50:11;;;;;;;113.90;36.60;;;;;;;-2.46;87.99;99166.95;435403;1257;97971;-39
2024/01/12 17:00:21;;;;;;;19.20;11.20;;;;;;;-2.52;87.85;99169.55;435459;1256;112615;-40
2024/01/12 17:10:28;;;;;;;35.20;16.10;;;;;;;-2.46;87.91;99158.70;435177;1256;107675;-39
2024/01/12 17:20:35;;;;;;;61.10;27.50;;;;;;;-2.44;87.95;99169.88;435307;1256;99237;-39
2024/01/12 17:30:42;;;;;;;41.00;19.70;;;;;;;-2.48;87.95;99168.89;435405;1263;106141;-39
2024/01/12 17:50:57;;;;;;;39.10;23.80;;;;;;;-2.51;88.21;99153.02;435025;1264;112040;-41
2024/01/12 18:11:09;;;;;;;38.40;18.80;;;;;;;-2.48;88.50;99147.41;435386;1263;99206;-38
2024/01/12 18:31:23;;;;;;;30.90;14.40;;;;;;;-2.60;88.56;99142.31;435307;1264;109232;-39
2024/01/12 18:41:31;;;;;;;67.30;26.40;;;;;;;-2.55;88.76;99126.89;435299;1257;99253;-42
2024/01/12 18:51:39;;;;;;;48.50;19.20;;;;;;;-2.56;88.92;99102.24;435324;1256;112006;-39
2024/01/12 19:01:47;;;;;;;43.30;17.80;;;;;;;-2.64;89.12;99091.05;435329;1264;107614;-39
2024/01/12 19:11:54;;;;;;;44.60;19.40;;;;;;;-2.63;89.28;99064.36;435217;1251;99222;-40
2024/01/12 19:22:01;;;;;;;18.60;11.10;;;;;;;-2.55;89.07;99067.31;435330;1255;111031;-39
2024/01/12 19:52:23;;;;;;;22.50;11.50;;;;;;;-2.59;89.53;99043.01;435304;1257;110570;-40
2024/01/12 20:12:38;;;;;;;54.10;21.00;;;;;;;-2.45;89.54;99024.10;435276;1255;97906;-40
2024/01/12 20:22:44;;;;;;;29.00;15.50;;;;;;;-2.46;89.99;99020.88;435358;1255;108019;-39
2024/01/12 20:32:50;;;;;;;44.50;19.90;;;;;;;-2.51;89.97;99027.19;435181;1251;97987;-40
2024/01/12 20:42:57;;;;;;;42.40;20.50;;;;;;;-2.53;90.02;99027.25;435170;1251;112097;-38
2024/01/12 20:53:04;;;;;;;20.70;11.70;;;;;;;-2.43;90.00;99014.48;435190;1256;108267;-41
2024/01/12 21:03:11;;;;;;;20.80;12.70;;;;;;;-2.37;90.08;99003.05;435209;1255;99193;-38
2024/01/12 21:13:18;;;;;;;31.20;16.00;;;;;;;-2.37;90.19;99008.18;435149;1257;107633;-39
2024/01/12 21:23:25;;;;;;;24.80;14.40;;;;;;;-2.44;90.37;99008.38;435224;1257;99231;-39
2024/01/12 21:33:32;;;;;;;16.80;11.10;;;;;;;-2.43;90.26;99012.54;435321;1255;113093;-38
2024/01/12 21:53:46;;;;;;;19.40;12.60;;;;;;;-2.30;90.59;98994.60;435217;1251;99214;-40
2024/01/12 22:03:52;;;;;;;36.00;18.10;;;;;;;-2.28;90.69;98994.13;435173;1251;107311;-38
2024/01/12 22:13:59;;;;;;;37.90;17.30;;;;;;;-2.36;90.85;98993.77;435333;1256;98582;-40
2024/01/12 22:44:17;;;;;;;29.30;12.60;;;;;;;-2.14;91.60;98948.41;435282;1256;98835;-40
2024/01/12 22:54:24;;;;;;;28.10;13.90;;;;;;;-2.11;91.87;98932.33;435174;1251;107584;-40
2024/01/12 23:14:38;;;;;;;20.10;9.10;;;;;;;-2.05;92.41;98925.52;435402;1251;110183;-40
2024/01/12 23:34:51;;;;;;;16.70;8.70;;;;;;;-1.88;92.98;98928.20;435172;1251;99254;-39
2024/01/12 23:44:57;;;;;;;21.50;12.30;;;;;;;-1.87;93.47;98921.34;435197;1256;108879;-40
2024/01/12 23:55:08;;;;;;;18.10;9.60;;;;;;;-1.89;93.58;98914.80;435289;1251;99211;-40
